Time;durP1;ratioP1;P1;durP2;ratioP2;P2;SDS_P1;SDS_P2;PMS_P1;PMS_P2;Temp;Humidity;BMP_temperature;BMP_pressure;BME280_temperature;BME280_humidity;BME280_pressure;Samples;Min_cycle;Max_cycle;Signal;HPM_P1;HPM_P2
2022/11/18 00:00:31;;;;;;;3.10;1.03;;;7.70;99.90;;;;;;4992426;28;20183;-69
2022/11/18 00:02:56;;;;;;;0.70;0.70;;;7.70;99.90;;;;;;4991598;28;20242;-68
2022/11/18 00:05:22;;;;;;;1.33;0.83;;;7.70;99.90;;;;;;4991968;28;20175;-68
2022/11/18 00:07:47;;;;;;;0.80;0.70;;;7.70;99.90;;;;;;4992041;28;20210;-68
2022/11/18 00:10:13;;;;;;;1.70;0.60;;;7.70;99.90;;;;;;4991630;28;20319;-69
2022/11/18 00:15:23;;;;;;;0.80;0.80;;;7.80;99.90;;;;;;4996773;28;20205;-69
2022/11/18 00:17:48;;;;;;;1.10;0.70;;;7.90;99.90;;;;;;4998878;28;20458;-69
2022/11/18 00:20:14;;;;;;;0.70;0.70;;;7.90;99.90;;;;;;4996794;28;20179;-69
2022/11/18 00:22:39;;;;;;;0.70;0.70;;;7.90;99.90;;;;;;4992604;28;20168;-68
2022/11/18 00:25:05;;;;;;;0.63;0.63;;;7.90;99.90;;;;;;4992083;28;20191;-68
2022/11/18 00:27:31;;;;;;;2.40;0.80;;;7.90;99.90;;;;;;4991402;28;20568;-68
2022/11/18 00:29:57;;;;;;;1.77;0.73;;;7.90;99.90;;;;;;4991271;28;21442;-69
2022/11/18 00:32:22;;;;;;;1.33;1.23;;;7.90;99.90;;;;;;4991428;28;20203;-67
2022/11/18 00:34:48;;;;;;;4.27;1.80;;;7.90;99.90;;;;;;4991895;28;20179;-68
2022/11/18 00:37:14;;;;;;;1.60;1.30;;;8.00;99.90;;;;;;4991837;28;20286;-68
2022/11/18 00:39:39;;;;;;;1.60;1.10;;;8.00;99.90;;;;;;4990848;28;20179;-69
2022/11/18 00:44:49;;;;;;;1.10;1.00;;;7.90;99.90;;;;;;4992069;28;20190;-68
2022/11/18 00:47:15;;;;;;;4.60;1.07;;;7.90;99.90;;;;;;4990783;28;20829;-69
2022/11/18 00:49:40;;;;;;;1.07;0.97;;;7.90;99.90;;;;;;5001346;28;20264;-69
2022/11/18 00:52:06;;;;;;;1.00;0.80;;;7.90;99.90;;;;;;4993921;28;20187;-68
2022/11/18 00:54:31;;;;;;;1.23;0.90;;;7.90;99.90;;;;;;4998042;28;20175;-69
2022/11/18 00:56:57;;;;;;;1.43;1.00;;;7.90;99.90;;;;;;5000982;28;20721;-68
2022/11/18 00:59:22;;;;;;;1.90;1.07;;;7.90;99.90;;;;;;5001384;28;20189;-68
2022/11/18 01:01:48;;;;;;;3.10;2.17;;;7.80;99.90;;;;;;4992570;28;20254;-70
2022/11/18 01:04:14;;;;;;;1.20;1.10;;;7.90;99.90;;;;;;4997718;28;20657;-69
2022/11/18 01:06:40;;;;;;;1.53;1.07;;;7.90;99.90;;;;;;5000847;28;20218;-67
2022/11/18 01:09:05;;;;;;;2.10;1.17;;;7.90;99.90;;;;;;4992576;28;20183;-67
2022/11/18 01:14:15;;;;;;;1.73;0.90;;;7.90;99.90;;;;;;4994743;28;20555;-67
2022/11/18 01:16:41;;;;;;;1.53;0.73;;;7.80;99.90;;;;;;4995559;28;20467;-67
2022/11/18 01:19:06;;;;;;;0.90;0.67;;;7.80;99.90;;;;;;4998459;28;20450;-67
2022/11/18 01:21:32;;;;;;;0.80;0.70;;;7.80;99.90;;;;;;5001990;28;20175;-68
2022/11/18 01:23:58;;;;;;;4.80;1.20;;;7.80;99.90;;;;;;4992746;28;20183;-68
2022/11/18 01:26:23;;;;;;;5.03;0.80;;;7.80;99.90;;;;;;4993556;28;20657;-67
2022/11/18 01:28:49;;;;;;;1.20;0.90;;;7.90;99.90;;;;;;4984213;28;20187;-67
2022/11/18 01:31:17;;;;;;;1.40;0.87;;;7.90;99.90;;;;;;4992107;28;20625;-67
2022/11/18 01:33:43;;;;;;;2.60;0.93;;;7.90;99.90;;;;;;4996629;28;20196;-67
2022/11/18 01:36:17;;;;;;;0.70;0.60;;;7.90;99.90;;;;;;5003403;28;21028;-68
2022/11/18 01:38:43;;;;;;;1.17;0.67;;;7.90;99.90;;;;;;5003696;28;20475;-67
2022/11/18 01:41:09;;;;;;;3.67;1.10;;;7.90;99.90;;;;;;5002884;28;20442;-67
2022/11/18 01:43:48;;;;;;;3.63;0.87;;;7.90;99.90;;;;;;4993803;28;20187;-67
2022/11/18 01:46:14;;;;;;;3.63;0.83;;;7.90;99.90;;;;;;4992111;28;20628;-67
2022/11/18 01:48:40;;;;;;;0.80;0.80;;;7.90;99.90;;;;;;4997504;28;20559;-67
2022/11/18 01:51:11;;;;;;;2.40;0.77;;;7.90;99.90;;;;;;4994552;28;20449;-67
2022/11/18 01:53:40;;;;;;;0.80;0.70;;;7.90;99.90;;;;;;4999208;28;20178;-67
2022/11/18 01:56:20;;;;;;;2.00;0.57;;;7.90;99.90;;;;;;4999962;28;20518;-67
2022/11/18 01:58:55;;;;;;;1.50;0.63;;;7.90;99.90;;;;;;4990488;28;20473;-67
2022/11/18 02:01:21;;;;;;;0.87;0.70;;;7.90;99.90;;;;;;4995074;28;20441;-67
2022/11/18 02:03:48;;;;;;;2.93;0.70;;;7.90;99.90;;;;;;4993708;28;20951;-67
2022/11/18 02:06:14;;;;;;;1.07;0.70;;;7.90;99.90;;;;;;4998083;28;20212;-67
2022/11/18 02:08:41;;;;;;;0.73;0.50;;;7.90;99.90;;;;;;4999025;28;21000;-67
2022/11/18 02:11:49;;;;;;;1.73;0.53;;;7.90;99.90;;;;;;5001125;28;20467;-67
2022/11/18 02:13:59;;;;;;;0.90;0.53;;;7.90;99.90;;;;;;4999535;28;20430;-67
2022/11/18 02:16:41;;;;;;;2.50;0.77;;;7.90;99.90;;;;;;4988260;28;20466;-67
2022/11/18 02:19:21;;;;;;;1.00;0.90;;;7.90;99.90;;;;;;5001197;28;20486;-67
2022/11/18 02:22:23;;;;;;;2.03;1.10;;;7.90;99.90;;;;;;5001448;28;21011;-67
2022/11/18 02:25:02;;;;;;;2.13;0.77;;;7.90;99.90;;;;;;5002963;28;20430;-67
2022/11/18 02:27:59;;;;;;;1.23;1.07;;;8.00;99.90;;;;;;5000386;28;20818;-67
2022/11/18 02:30:25;;;;;;;1.47;1.37;;;8.00;99.90;;;;;;4998204;28;20446;-67
2022/11/18 02:32:59;;;;;;;2.33;1.13;;;8.00;99.90;;;;;;4996350;28;20431;-67
2022/11/18 02:35:28;;;;;;;0.93;0.57;;;8.00;99.90;;;;;;5004945;28;20515;-67
2022/11/18 02:38:18;;;;;;;1.40;0.77;;;8.00;99.90;;;;;;4997830;28;20462;-67
2022/11/18 02:40:58;;;;;;;1.90;0.80;;;8.00;99.90;;;;;;4992801;28;20862;-67
2022/11/18 02:43:30;;;;;;;3.23;0.77;;;8.00;99.90;;;;;;4993256;28;20449;-67
2022/11/18 02:46:01;;;;;;;2.73;0.70;;;8.00;99.90;;;;;;5003356;28;20503;-67
2022/11/18 02:48:29;;;;;;;1.17;0.70;;;8.00;99.90;;;;;;4996633;28;20827;-67
2022/11/18 02:50:57;;;;;;;0.67;0.50;;;8.00;99.90;;;;;;4993518;28;20791;-67
2022/11/18 02:53:24;;;;;;;2.97;0.80;;;8.00;99.90;;;;;;4998697;28;20485;-67
2022/11/18 02:55:52;;;;;;;1.20;0.80;;;8.00;99.90;;;;;;5004279;28;20442;-67
2022/11/18 02:58:20;;;;;;;0.63;0.63;;;8.00;99.90;;;;;;5002584;28;20519;-67
2022/11/18 03:00:56;;;;;;;1.37;0.70;;;8.00;99.90;;;;;;5002028;28;20435;-67
2022/11/18 03:03:33;;;;;;;0.83;0.77;;;8.10;99.90;;;;;;4988155;28;20779;-67
2022/11/18 03:06:18;;;;;;;1.33;0.60;;;8.10;99.90;;;;;;4993746;28;20442;-67
2022/11/18 03:08:51;;;;;;;0.90;0.60;;;8.00;99.90;;;;;;4993551;28;20466;-67
2022/11/18 03:11:20;;;;;;;0.77;0.60;;;8.10;99.90;;;;;;4985066;28;20441;-67
2022/11/18 03:14:06;;;;;;;0.60;0.57;;;8.10;99.90;;;;;;4993167;28;20442;-67
2022/11/18 03:16:53;;;;;;;0.70;0.67;;;8.10;99.90;;;;;;4988213;28;20480;-67
2022/11/18 03:19:33;;;;;;;2.17;1.00;;;8.10;99.90;;;;;;4986090;28;20822;-67
2022/11/18 03:22:29;;;;;;;1.03;0.60;;;8.10;99.90;;;;;;4991827;28;20525;-67
2022/11/18 03:25:00;;;;;;;2.20;0.50;;;8.00;99.90;;;;;;4983068;28;20449;-67
2022/11/18 03:27:59;;;;;;;0.50;0.47;;;8.00;99.90;;;;;;4992380;28;20469;-67
2022/11/18 03:30:25;;;;;;;1.23;0.80;;;8.00;99.90;;;;;;4987050;28;20438;-67
2022/11/18 03:33:02;;;;;;;1.17;0.70;;;8.00;99.90;;;;;;4991275;28;20449;-67
2022/11/18 03:35:32;;;;;;;1.00;0.73;;;8.00;99.90;;;;;;5005320;28;20477;-67
2022/11/18 03:38:06;;;;;;;0.50;0.50;;;8.00;99.90;;;;;;4996528;28;20459;-67
2022/11/18 03:40:36;;;;;;;2.40;0.77;;;8.00;99.90;;;;;;4996974;28;20485;-67
2022/11/18 03:43:09;;;;;;;1.63;1.10;;;8.10;99.90;;;;;;4998982;28;20438;-67
2022/11/18 03:45:44;;;;;;;0.83;0.80;;;8.10;99.90;;;;;;4989160;28;20454;-67
2022/11/18 03:48:16;;;;;;;2.20;0.70;;;8.10;99.90;;;;;;4990907;28;20466;-67
2022/11/18 03:51:06;;;;;;;1.00;0.80;;;8.20;99.90;;;;;;5001313;28;20460;-67
2022/11/18 03:53:36;;;;;;;1.03;0.90;;;8.20;99.90;;;;;;4993708;28;20429;-66
2022/11/18 03:56:09;;;;;;;2.00;1.00;;;8.10;99.90;;;;;;5001375;28;20474;-67
2022/11/18 03:59:00;;;;;;;1.47;0.67;;;8.20;99.90;;;;;;4994919;28;20964;-67
2022/11/18 04:01:42;;;;;;;0.80;0.70;;;8.20;99.90;;;;;;4992915;28;20529;-67
2022/11/18 04:04:09;;;;;;;0.93;0.83;;;8.20;99.90;;;;;;5004451;28;20442;-67
2022/11/18 04:06:44;;;;;;;1.40;0.90;;;8.30;99.90;;;;;;4984934;28;20975;-67
2022/11/18 04:09:23;;;;;;;1.37;0.70;;;8.30;99.90;;;;;;4997336;28;20506;-67
2022/11/18 04:12:03;;;;;;;1.03;0.93;;;8.30;99.90;;;;;;4994495;28;20435;-67
2022/11/18 04:14:31;;;;;;;0.80;0.80;;;8.30;99.90;;;;;;4992912;28;20442;-67
2022/11/18 04:16:57;;;;;;;1.00;0.60;;;8.30;99.90;;;;;;5000200;28;20462;-67
2022/11/18 04:19:22;;;;;;;1.83;0.83;;;8.30;99.90;;;;;;5000500;28;20448;-67
2022/11/18 04:21:48;;;;;;;0.70;0.70;;;8.20;99.90;;;;;;4995376;28;20654;-67
2022/11/18 04:24:14;;;;;;;0.70;0.60;;;8.10;99.90;;;;;;4990278;28;20192;-67
2022/11/18 04:26:39;;;;;;;0.83;0.70;;;8.00;99.90;;;;;;4991333;28;20469;-67
2022/11/18 04:29:05;;;;;;;1.27;0.73;;;7.90;99.90;;;;;;4993718;28;20190;-67
2022/11/18 04:31:31;;;;;;;0.60;0.50;;;7.90;99.90;;;;;;4998085;28;20181;-67
2022/11/18 04:33:56;;;;;;;0.80;0.60;;;7.80;99.90;;;;;;4995023;28;20255;-68
2022/11/18 04:36:22;;;;;;;1.27;0.40;;;7.70;99.90;;;;;;4999877;28;20282;-67
2022/11/18 04:38:47;;;;;;;0.83;0.70;;;7.60;99.90;;;;;;4990373;28;20184;-67
2022/11/18 04:41:13;;;;;;;0.60;0.60;;;7.60;99.90;;;;;;4986555;28;20221;-67
2022/11/18 04:43:39;;;;;;;0.50;0.50;;;7.50;99.90;;;;;;4999640;28;20210;-67
2022/11/18 04:46:05;;;;;;;2.30;0.50;;;7.50;99.90;;;;;;4997896;28;20250;-67
2022/11/18 04:48:30;;;;;;;1.10;0.73;;;7.50;99.90;;;;;;4988078;28;20455;-67
2022/11/18 04:50:56;;;;;;;0.50;0.40;;;7.50;99.90;;;;;;4999894;28;20670;-67
2022/11/18 04:53:22;;;;;;;0.50;0.50;;;7.50;99.90;;;;;;5002499;28;20870;-67
2022/11/18 04:55:47;;;;;;;0.67;0.60;;;7.50;99.90;;;;;;4995579;28;20510;-67
2022/11/18 04:58:13;;;;;;;0.60;0.50;;;7.40;99.90;;;;;;4993734;28;20196;-67
2022/11/18 05:00:38;;;;;;;1.10;0.60;;;7.40;99.90;;;;;;4997672;28;20184;-67
2022/11/18 05:03:04;;;;;;;0.60;0.50;;;7.40;99.90;;;;;;4990288;28;20629;-67
2022/11/18 05:05:30;;;;;;;1.10;0.80;;;7.40;99.90;;;;;;4993751;28;20685;-67
2022/11/18 05:07:55;;;;;;;0.77;0.77;;;7.40;99.90;;;;;;4995021;28;20282;-67
2022/11/18 05:10:21;;;;;;;0.97;0.70;;;7.40;99.90;;;;;;4992581;28;20180;-67
2022/11/18 05:12:49;;;;;;;0.63;0.60;;;7.40;99.90;;;;;;4983602;28;20180;-67
2022/11/18 05:15:17;;;;;;;0.80;0.80;;;7.30;99.90;;;;;;4990844;28;20175;-67
2022/11/18 05:17:43;;;;;;;1.10;0.67;;;7.30;99.90;;;;;;4990045;28;20537;-67
2022/11/18 05:20:09;;;;;;;4.03;1.30;;;7.30;99.90;;;;;;5000407;28;20442;-67
2022/11/18 05:22:35;;;;;;;2.63;1.87;;;7.30;99.90;;;;;;4989956;28;20569;-67
2022/11/18 05:25:01;;;;;;;1.40;1.07;;;7.30;99.90;;;;;;5001098;28;20477;-67
2022/11/18 05:27:26;;;;;;;1.40;0.83;;;7.20;99.90;;;;;;4992123;28;20261;-67
2022/11/18 05:29:52;;;;;;;0.60;0.57;;;7.30;99.90;;;;;;4989823;28;20266;-67
2022/11/18 05:32:17;;;;;;;0.73;0.60;;;7.30;99.90;;;;;;4993926;28;20207;-67
2022/11/18 05:34:43;;;;;;;1.30;0.80;;;7.30;99.90;;;;;;4993178;28;20927;-67
2022/11/18 05:37:09;;;;;;;2.13;1.00;;;7.30;99.90;;;;;;5005425;28;20210;-67
2022/11/18 05:39:35;;;;;;;1.70;1.07;;;7.30;99.90;;;;;;5002148;28;20217;-67
2022/11/18 05:44:45;;;;;;;1.17;0.60;;;7.30;99.90;;;;;;4999382;28;20627;-67
2022/11/18 05:47:11;;;;;;;1.53;0.80;;;7.30;99.90;;;;;;5003865;28;20492;-67
2022/11/18 05:49:36;;;;;;;1.30;0.67;;;7.30;99.90;;;;;;5002976;28;20249;-67
2022/11/18 05:52:02;;;;;;;1.53;1.20;;;7.30;99.90;;;;;;4995867;28;20191;-67
2022/11/18 05:54:28;;;;;;;0.70;0.70;;;7.20;99.90;;;;;;4997247;28;20179;-67
2022/11/18 05:56:54;;;;;;;1.30;0.80;;;7.20;99.90;;;;;;5001323;28;20813;-67
2022/11/18 05:59:20;;;;;;;1.80;1.13;;;7.30;99.90;;;;;;5004706;28;20175;-67
2022/11/18 06:01:55;;;;;;;5.33;1.70;;;7.30;99.90;;;;;;4997918;28;20823;-67
2022/11/18 06:04:29;;;;;;;1.80;1.20;;;7.30;99.90;;;;;;4999511;28;20270;-67
2022/11/18 06:07:01;;;;;;;0.90;0.70;;;7.30;99.90;;;;;;4996700;28;20513;-67
2022/11/18 06:09:32;;;;;;;2.10;1.23;;;7.30;99.90;;;;;;4993905;28;20512;-67
2022/11/18 06:12:00;;;;;;;2.97;1.20;;;7.30;99.90;;;;;;4993624;28;20434;-67
2022/11/18 06:14:39;;;;;;;2.10;1.10;;;7.30;99.90;;;;;;5000321;28;20506;-67
2022/11/18 06:17:07;;;;;;;2.50;1.37;;;7.30;99.90;;;;;;4992209;28;21777;-67
2022/11/18 06:19:36;;;;;;;2.37;1.50;;;7.30;99.90;;;;;;4998344;28;20434;-67
2022/11/18 06:22:02;;;;;;;2.20;0.90;;;7.30;99.90;;;;;;5002422;28;20439;-67
2022/11/18 06:24:28;;;;;;;1.47;1.07;;;7.20;99.90;;;;;;4989335;28;20933;-68
2022/11/18 06:26:54;;;;;;;2.07;1.10;;;7.20;99.90;;;;;;4996059;28;20707;-68
2022/11/18 06:29:20;;;;;;;0.90;0.70;;;7.20;99.90;;;;;;4996556;28;20342;-67
2022/11/18 06:31:45;;;;;;;0.90;0.70;;;7.20;99.90;;;;;;5002353;28;20217;-68
2022/11/18 06:34:11;;;;;;;1.23;1.13;;;7.20;99.90;;;;;;4999552;28;20542;-68
2022/11/18 06:36:36;;;;;;;0.97;0.87;;;7.30;99.90;;;;;;5009985;28;20187;-69
2022/11/18 06:39:06;;;;;;;1.70;1.00;;;7.30;99.90;;;;;;5000959;28;20189;-66
2022/11/18 06:41:32;;;;;;;0.80;0.80;;;7.30;99.90;;;;;;5003477;28;20271;-67
2022/11/18 06:43:58;;;;;;;2.90;1.20;;;7.40;99.90;;;;;;4995000;28;20927;-66
2022/11/18 06:49:07;;;;;;;1.40;1.27;;;7.30;99.90;;;;;;4992263;28;20713;-66
2022/11/18 06:51:33;;;;;;;1.77;1.50;;;7.30;99.90;;;;;;4994952;28;20414;-66
2022/11/18 06:53:58;;;;;;;1.83;1.63;;;7.30;99.90;;;;;;4994837;28;20174;-66
2022/11/18 06:56:24;;;;;;;4.63;1.20;;;7.30;99.90;;;;;;4994856;28;20195;-66
2022/11/18 06:58:56;;;;;;;3.33;1.40;;;7.30;99.90;;;;;;4994685;28;20627;-66
2022/11/18 07:01:24;;;;;;;1.37;1.23;;;7.30;99.90;;;;;;4994859;28;20414;-66
2022/11/18 07:03:50;;;;;;;2.13;1.50;;;7.30;99.90;;;;;;4994846;28;20423;-66
2022/11/18 07:06:19;;;;;;;2.83;1.20;;;7.30;99.90;;;;;;4995090;28;20541;-66
2022/11/18 07:08:47;;;;;;;1.73;0.67;;;7.30;99.90;;;;;;4994328;28;20478;-66
2022/11/18 07:11:15;;;;;;;3.00;1.57;;;7.30;99.90;;;;;;4994599;28;20488;-66
2022/11/18 07:13:41;;;;;;;2.40;2.07;;;7.30;99.90;;;;;;4994592;28;20774;-66
2022/11/18 07:16:09;;;;;;;1.73;1.30;;;7.30;99.90;;;;;;4994570;28;20420;-66
2022/11/18 07:18:37;;;;;;;1.20;1.10;;;7.40;99.90;;;;;;4994275;28;20230;-66
2022/11/18 07:21:14;;;;;;;3.60;1.10;;;7.40;99.90;;;;;;4994321;28;20418;-66
2022/11/18 07:23:41;;;;;;;3.00;0.77;;;7.40;99.90;;;;;;4994402;28;20871;-66
2022/11/18 07:26:06;;;;;;;1.20;0.93;;;7.30;99.90;;;;;;4994308;28;20418;-66
2022/11/18 07:28:32;;;;;;;0.80;0.80;;;7.40;99.90;;;;;;4994006;28;20528;-66
2022/11/18 07:31:10;;;;;;;1.47;0.70;;;7.40;99.90;;;;;;4994251;28;20427;-66
2022/11/18 07:33:36;;;;;;;1.40;1.00;;;7.40;99.90;;;;;;4994258;28;20510;-66
2022/11/18 07:36:04;;;;;;;2.00;0.70;;;7.40;99.90;;;;;;4994064;28;20445;-66
2022/11/18 07:38:30;;;;;;;1.60;1.20;;;7.40;99.90;;;;;;4985313;28;20447;-66
2022/11/18 07:41:03;;;;;;;4.23;3.33;;;7.40;99.90;;;;;;4968048;28;20512;-67
2022/11/18 07:43:28;;;;;;;1.73;0.90;;;7.40;99.90;;;;;;4987311;28;20179;-66
2022/11/18 07:45:54;;;;;;;1.30;1.20;;;7.40;99.90;;;;;;4993227;28;20426;-66
2022/11/18 07:48:19;;;;;;;1.30;0.83;;;7.40;99.90;;;;;;4993263;28;20200;-65
2022/11/18 07:50:45;;;;;;;2.87;1.80;;;7.40;99.90;;;;;;4985270;28;20184;-66
2022/11/18 07:53:10;;;;;;;4.50;2.27;;;7.40;99.90;;;;;;4987939;28;20237;-66
2022/11/18 07:55:36;;;;;;;3.70;1.13;;;7.50;99.90;;;;;;4992219;28;20187;-66
2022/11/18 07:58:02;;;;;;;1.20;1.10;;;7.50;99.90;;;;;;4992225;28;20635;-66
2022/11/18 08:00:27;;;;;;;2.10;1.63;;;7.50;99.90;;;;;;4990135;28;20182;-66
2022/11/18 08:02:53;;;;;;;1.30;1.20;;;7.50;99.90;;;;;;4990672;28;20198;-66
2022/11/18 08:05:18;;;;;;;0.80;0.80;;;7.50;99.90;;;;;;4992418;28;20184;-66
2022/11/18 08:07:44;;;;;;;3.07;1.10;;;7.60;99.90;;;;;;5001048;28;20779;-66
2022/11/18 08:10:10;;;;;;;2.00;0.70;;;7.70;99.90;;;;;;4992426;28;20172;-65
2022/11/18 08:12:35;;;;;;;4.53;1.37;;;7.70;99.90;;;;;;4992599;28;20175;-66
2022/11/18 08:15:01;;;;;;;1.00;0.90;;;7.70;99.90;;;;;;4993013;28;20183;-66
2022/11/18 08:17:27;;;;;;;1.90;1.20;;;7.80;99.90;;;;;;4993008;28;20203;-66
2022/11/18 08:19:52;;;;;;;3.47;2.70;;;7.70;99.90;;;;;;4991007;28;20198;-66
2022/11/18 08:22:19;;;;;;;2.03;1.07;;;7.70;99.90;;;;;;4992555;28;20187;-66
2022/11/18 08:24:46;;;;;;;1.27;0.90;;;7.70;99.90;;;;;;4993209;28;20171;-65
2022/11/18 08:27:12;;;;;;;1.90;0.73;;;7.80;99.90;;;;;;4992304;28;21026;-65
2022/11/18 08:29:37;;;;;;;1.50;0.80;;;7.80;99.90;;;;;;4992547;28;20427;-66
2022/11/18 08:32:04;;;;;;;1.17;0.70;;;7.80;99.90;;;;;;4993120;28;20551;-65
2022/11/18 08:34:29;;;;;;;0.80;0.70;;;7.90;99.90;;;;;;5001204;28;20183;-66
2022/11/18 08:36:55;;;;;;;1.23;0.73;;;7.90;99.90;;;;;;4992777;28;20442;-65
2022/11/18 08:39:20;;;;;;;2.03;0.90;;;8.00;99.90;;;;;;4992575;28;20187;-66
2022/11/18 08:41:46;;;;;;;2.73;0.70;;;8.10;99.90;;;;;;4983335;28;20187;-66
2022/11/18 08:44:14;;;;;;;0.77;0.67;;;8.00;99.90;;;;;;4992849;28;20168;-66
2022/11/18 08:46:40;;;;;;;2.10;0.90;;;8.10;99.90;;;;;;4992059;28;20283;-66
2022/11/18 08:49:06;;;;;;;3.47;2.57;;;8.10;99.90;;;;;;4992280;28;20795;-65
2022/11/18 08:51:31;;;;;;;1.23;1.07;;;8.20;99.90;;;;;;4992783;28;20478;-66
2022/11/18 08:53:57;;;;;;;4.37;3.60;;;8.30;99.90;;;;;;4992219;28;20186;-65
2022/11/18 08:56:23;;;;;;;2.50;1.33;;;8.30;99.90;;;;;;4992638;28;20184;-65
2022/11/18 08:58:50;;;;;;;1.30;0.90;;;8.40;99.90;;;;;;4992366;28;20183;-66
2022/11/18 09:01:16;;;;;;;1.43;0.83;;;8.50;99.90;;;;;;4991538;28;20426;-66
2022/11/18 09:03:41;;;;;;;2.77;2.40;;;8.40;99.90;;;;;;4992693;28;20525;-65
2022/11/18 09:06:16;;;;;;;0.90;0.80;;;8.50;99.90;;;;;;4991737;28;20188;-66
2022/11/18 09:08:42;;;;;;;1.07;0.80;;;8.50;99.90;;;;;;4991942;28;20227;-65
2022/11/18 09:11:16;;;;;;;0.90;0.90;;;8.50;99.90;;;;;;4994586;28;20430;-66
2022/11/18 09:13:42;;;;;;;2.10;1.80;;;8.60;99.90;;;;;;4998018;28;20434;-66
2022/11/18 09:16:08;;;;;;;1.23;1.00;;;8.60;99.90;;;;;;4999057;28;20421;-66
2022/11/18 09:18:34;;;;;;;1.17;1.07;;;8.60;99.90;;;;;;4998199;28;20198;-66
2022/11/18 09:21:05;;;;;;;2.87;2.37;;;8.50;99.90;;;;;;4998658;28;20433;-66
2022/11/18 09:23:33;;;;;;;3.60;1.23;;;8.50;99.90;;;;;;4999029;28;20446;-66
2022/11/18 09:26:08;;;;;;;1.87;1.40;;;8.50;99.90;;;;;;4997232;28;20986;-66
2022/11/18 09:28:34;;;;;;;3.77;1.43;;;8.50;99.90;;;;;;4998329;28;20515;-65
2022/11/18 09:31:08;;;;;;;1.93;1.73;;;8.60;99.90;;;;;;4998373;28;20911;-66
2022/11/18 09:33:35;;;;;;;6.50;2.00;;;8.60;99.90;;;;;;4998878;28;20880;-65
2022/11/18 09:36:01;;;;;;;2.60;1.50;;;8.60;99.90;;;;;;4998791;28;20492;-66
2022/11/18 09:38:30;;;;;;;1.23;1.13;;;8.60;99.90;;;;;;4997804;28;20452;-66
2022/11/18 09:41:04;;;;;;;1.27;1.17;;;8.50;99.90;;;;;;4998857;28;20186;-67
2022/11/18 09:43:54;;;;;;;3.30;1.10;;;8.40;99.90;;;;;;4998072;28;20437;-66
2022/11/18 09:46:40;;;;;;;1.07;0.97;;;8.50;99.90;;;;;;4998753;28;20511;-65
2022/11/18 09:49:14;;;;;;;2.20;1.27;;;8.60;99.90;;;;;;4997774;28;20480;-66
2022/11/18 09:51:46;;;;;;;1.33;1.10;;;8.80;99.90;;;;;;4998425;28;20498;-66
2022/11/18 09:54:23;;;;;;;1.50;1.40;;;9.10;99.90;;;;;;4998238;28;20776;-65
2022/11/18 09:56:51;;;;;;;1.60;1.50;;;9.50;99.90;;;;;;4998296;28;20441;-66
2022/11/18 09:59:20;;;;;;;2.77;1.87;;;9.80;99.90;;;;;;4998247;28;20421;-65
2022/11/18 10:01:47;;;;;;;2.10;1.60;;;9.90;99.90;;;;;;4998272;28;20418;-65
2022/11/18 10:04:18;;;;;;;3.27;1.80;;;9.90;99.90;;;;;;4998179;28;20419;-66
2022/11/18 10:06:45;;;;;;;3.23;1.87;;;9.70;99.90;;;;;;4998053;28;20458;-66
2022/11/18 10:09:10;;;;;;;4.53;2.00;;;9.50;99.90;;;;;;4997948;28;21167;-65
2022/11/18 10:12:17;;;;;;;1.33;1.23;;;9.40;99.90;;;;;;4998610;28;20410;-66
2022/11/18 10:15:05;;;;;;;1.70;1.60;;;9.30;99.90;;;;;;5007220;28;20255;-66
2022/11/18 10:18:03;;;;;;;2.97;1.70;;;9.20;99.90;;;;;;4998529;28;20444;-65
2022/11/18 10:20:35;;;;;;;5.03;3.67;;;9.20;99.90;;;;;;4993050;28;20975;-65
2022/11/18 10:23:21;;;;;;;8.20;6.10;;;9.30;99.90;;;;;;4995750;28;20418;-66
2022/11/18 10:25:46;;;;;;;4.90;2.27;;;9.30;99.90;;;;;;4994544;28;20462;-65
2022/11/18 10:28:30;;;;;;;1.77;1.67;;;9.30;99.90;;;;;;4994839;28;20588;-66
2022/11/18 10:31:08;;;;;;;2.33;1.80;;;9.30;99.90;;;;;;4994872;28;20171;-65
2022/11/18 10:33:34;;;;;;;4.37;1.50;;;9.30;99.90;;;;;;4995222;28;20960;-66
2022/11/18 10:36:15;;;;;;;3.20;2.40;;;9.30;99.90;;;;;;4994705;28;20410;-66
2022/11/18 10:38:41;;;;;;;2.30;1.83;;;9.30;99.90;;;;;;4994635;28;20508;-66
2022/11/18 10:41:19;;;;;;;3.80;2.53;;;9.30;99.90;;;;;;4994633;28;20411;-66
2022/11/18 10:43:50;;;;;;;2.20;1.73;;;9.30;99.90;;;;;;4994770;28;20430;-66
2022/11/18 10:46:34;;;;;;;4.17;2.20;;;9.30;99.90;;;;;;4995077;28;20438;-65
2022/11/18 10:49:09;;;;;;;3.00;1.97;;;9.40;99.90;;;;;;4993917;28;20434;-66
2022/11/18 10:51:37;;;;;;;3.00;2.00;;;9.50;99.90;;;;;;4975403;28;20888;-65
2022/11/18 10:54:22;;;;;;;1.73;1.20;;;9.60;99.90;;;;;;4980175;28;20415;-65
2022/11/18 10:56:59;;;;;;;1.70;1.60;;;9.70;99.90;;;;;;4994516;28;20493;-65
2022/11/18 10:59:46;;;;;;;2.10;1.90;;;9.80;99.90;;;;;;4994519;28;20924;-66
2022/11/18 11:02:30;;;;;;;1.80;1.50;;;9.70;99.90;;;;;;4987735;28;20434;-66
2022/11/18 11:04:57;;;;;;;3.53;2.00;;;9.60;99.90;;;;;;4994916;28;20411;-66
2022/11/18 11:07:26;;;;;;;2.17;1.77;;;9.70;99.90;;;;;;4992229;28;20470;-66
2022/11/18 11:10:03;;;;;;;2.03;1.70;;;10.00;99.90;;;;;;4994376;28;20427;-66
2022/11/18 11:12:34;;;;;;;1.37;1.27;;;10.30;99.90;;;;;;4994668;28;20472;-66
2022/11/18 11:15:08;;;;;;;1.97;1.63;;;10.40;99.90;;;;;;4993617;28;20429;-65
2022/11/18 11:17:44;;;;;;;2.60;2.40;;;10.40;99.90;;;;;;4994462;28;20450;-66
2022/11/18 11:20:21;;;;;;;1.60;1.50;;;10.80;99.90;;;;;;4999137;28;20802;-65
2022/11/18 11:22:47;;;;;;;2.50;1.60;;;11.00;99.90;;;;;;4996114;28;21012;-66
2022/11/18 11:25:32;;;;;;;1.60;1.30;;;11.10;99.90;;;;;;4994256;28;20419;-66
2022/11/18 11:28:15;;;;;;;1.50;1.10;;;10.60;99.90;;;;;;4993290;28;20463;-65
2022/11/18 11:31:16;;;;;;;1.63;1.53;;;10.30;99.90;;;;;;4994222;28;20411;-66
2022/11/18 11:34:02;;;;;;;2.23;2.00;;;10.10;99.90;;;;;;4992899;28;20418;-65
2022/11/18 11:36:38;;;;;;;1.67;1.57;;;10.30;99.90;;;;;;4993797;28;20435;-66
2022/11/18 11:39:16;;;;;;;4.77;4.10;;;11.40;99.90;;;;;;4993421;28;20503;-66
2022/11/18 11:42:02;;;;;;;1.63;1.53;;;11.90;99.90;;;;;;4993392;28;20425;-66
2022/11/18 11:44:30;;;;;;;1.40;1.30;;;11.60;99.90;;;;;;4993577;28;20426;-66
2022/11/18 11:50:16;;;;;;;1.90;1.40;;;10.60;99.90;;;;;;4993165;28;20473;-66
2022/11/18 11:53:35;;;;;;;27.73;15.03;;;10.20;99.90;;;;;;4993193;28;20418;-64
2022/11/18 11:56:09;;;;;;;5.50;3.67;;;10.10;99.90;;;;;;4952628;28;20424;-65
2022/11/18 11:59:09;;;;;;;2.80;2.40;;;10.10;99.90;;;;;;4982769;28;20812;-69
2022/11/18 12:02:12;;;;;;;3.70;1.50;;;10.20;99.90;;;;;;4979530;28;20438;-63
2022/11/18 12:04:50;;;;;;;5.37;2.40;;;10.30;99.90;;;;;;4992701;28;20509;-65
2022/11/18 12:07:23;;;;;;;2.40;1.17;;;10.40;99.90;;;;;;4992294;28;20470;-67
2022/11/18 12:10:26;;;;;;;1.60;1.50;;;10.40;99.90;;;;;;4973743;28;20507;-66
2022/11/18 12:13:00;;;;;;;1.70;1.53;;;10.30;99.90;;;;;;4985799;28;20453;-67
2022/11/18 12:15:49;;;;;;;3.47;1.80;;;10.10;99.90;;;;;;4994889;28;20944;-67
2022/11/18 12:18:32;;;;;;;2.07;1.40;;;9.90;99.90;;;;;;4999477;28;20477;-67
2022/11/18 12:20:58;;;;;;;1.50;1.40;;;9.70;99.90;;;;;;4992985;28;20457;-67
2022/11/18 12:23:29;;;;;;;1.50;1.40;;;9.60;99.90;;;;;;4992667;28;20439;-67
2022/11/18 12:26:10;;;;;;;1.50;1.20;;;9.60;99.90;;;;;;4992809;28;20183;-67
2022/11/18 12:28:44;;;;;;;1.50;1.33;;;9.50;99.90;;;;;;4992917;28;20459;-66
2022/11/18 12:31:18;;;;;;;3.10;1.37;;;9.40;99.90;;;;;;4992003;28;20489;-67
2022/11/18 12:33:58;;;;;;;4.23;1.23;;;9.30;99.90;;;;;;4992792;28;20418;-67
2022/11/18 12:36:38;;;;;;;1.20;1.13;;;9.40;99.90;;;;;;4996800;28;20445;-66
2022/11/18 12:39:22;;;;;;;1.53;1.43;;;9.40;99.90;;;;;;4995064;28;20837;-66
2022/11/18 12:44:50;;;;;;;2.30;1.30;;;9.30;99.90;;;;;;4992766;28;20429;-67
2022/11/18 12:47:51;;;;;;;2.80;1.80;;;9.30;99.90;;;;;;4992157;28;20473;-66
2022/11/18 12:50:16;;;;;;;2.30;2.10;;;9.40;99.90;;;;;;4964716;28;20438;-67
2022/11/18 12:52:42;;;;;;;1.77;1.60;;;9.50;99.90;;;;;;4992832;28;20410;-67
2022/11/18 12:55:31;;;;;;;2.00;1.90;;;9.70;99.90;;;;;;4992056;28;20168;-67
2022/11/18 12:57:56;;;;;;;2.60;1.90;;;10.10;99.90;;;;;;4992116;28;20227;-67
2022/11/18 13:00:22;;;;;;;7.50;2.00;;;10.60;99.90;;;;;;4992066;28;20974;-67
2022/11/18 13:02:57;;;;;;;2.60;1.93;;;11.00;99.90;;;;;;4992262;28;20220;-67
2022/11/18 13:05:26;;;;;;;3.80;2.93;;;11.10;99.90;;;;;;4973232;28;20251;-67
2022/11/18 13:08:12;;;;;;;4.87;2.60;;;11.10;99.90;;;;;;4973403;28;20620;-66
2022/11/18 13:11:43;;;;;;;2.63;1.93;;;11.10;99.90;;;;;;4987621;28;20940;-66
2022/11/18 13:13:40;;;;;;;3.03;1.90;;;11.00;99.90;;;;;;4992407;28;20450;-66
2022/11/18 13:19:21;;;;;;;5.73;2.40;;;11.10;99.90;;;;;;4991942;28;20461;-66
2022/11/18 13:24:49;;;;;;;2.70;2.43;;;11.00;99.90;;;;;;4992245;28;20434;-66
2022/11/18 13:27:37;;;;;;;2.10;1.50;;;10.60;99.90;;;;;;4992308;28;20472;-67
2022/11/18 13:30:11;;;;;;;2.00;1.73;;;10.50;99.90;;;;;;4991287;28;20578;-66
2022/11/18 13:32:42;;;;;;;2.63;2.43;;;10.40;99.90;;;;;;4992299;28;20425;-66
2022/11/18 13:35:18;;;;;;;2.20;1.73;;;10.20;99.90;;;;;;4992417;28;20430;-67
2022/11/18 13:37:53;;;;;;;6.50;1.97;;;10.10;99.90;;;;;;4991623;28;20959;-67
2022/11/18 13:40:27;;;;;;;6.30;2.50;;;10.20;99.90;;;;;;4992075;28;20517;-67
2022/11/18 13:42:53;;;;;;;3.00;2.67;;;10.50;99.90;;;;;;4991436;28;20794;-67